createdAt,value
2023-07-26T00:03:01.832Z,0.00
2023-07-26T00:08:01.673Z,0.00
2023-07-26T00:13:01.619Z,0.00
2023-07-26T00:18:01.553Z,0.00
2023-07-26T00:23:01.521Z,0.00
2023-07-26T00:28:01.391Z,0.00
2023-07-26T00:33:01.380Z,0.00
2023-07-26T00:38:01.309Z,0.00
2023-07-26T00:43:04.218Z,0.00
2023-07-26T00:48:01.226Z,0.00
2023-07-26T00:53:01.183Z,0.00
2023-07-26T00:58:01.013Z,0.00
2023-07-26T01:03:01.009Z,0.00
2023-07-26T01:08:00.882Z,0.00
2023-07-26T01:13:00.835Z,0.00
2023-07-26T01:18:00.768Z,0.00
2023-07-26T01:23:00.697Z,0.00
2023-07-26T01:28:00.599Z,0.00
2023-07-26T01:33:00.660Z,0.00
2023-07-26T01:38:00.498Z,0.00
2023-07-26T01:43:03.431Z,0.00
2023-07-26T01:48:00.384Z,0.00
2023-07-26T01:53:00.330Z,0.00
2023-07-26T01:58:00.320Z,0.00
2023-07-26T02:03:00.421Z,0.00
2023-07-26T02:08:00.083Z,0.00
2023-07-26T02:13:00.075Z,0.00
2023-07-26T02:18:00.003Z,0.00
2023-07-26T02:22:59.926Z,0.00
2023-07-26T02:27:59.811Z,0.00
2023-07-26T02:32:59.827Z,0.00
2023-07-26T02:37:59.734Z,0.00
2023-07-26T02:43:02.703Z,0.00
2023-07-26T02:47:59.644Z,0.00
2023-07-26T02:52:59.576Z,0.00
2023-07-26T02:57:59.443Z,4.00
2023-07-26T03:02:59.477Z,4.00
2023-07-26T03:07:59.340Z,8.00
2023-07-26T03:12:59.330Z,20.00
2023-07-26T03:17:59.234Z,32.00
2023-07-26T03:22:59.176Z,56.00
2023-07-26T03:27:59.061Z,84.00
2023-07-26T03:32:59.031Z,112.00
2023-07-26T03:37:58.938Z,160.00
2023-07-26T03:43:01.873Z,216.00
2023-07-26T03:47:58.849Z,280.00
2023-07-26T03:52:58.967Z,352.00
2023-07-26T03:57:58.679Z,452.00
2023-07-26T04:02:58.813Z,632.00
2023-07-26T04:07:58.542Z,860.00
2023-07-26T04:12:58.671Z,1100.00
2023-07-26T04:17:58.457Z,1372.00
2023-07-26T04:22:58.351Z,1712.00
2023-07-26T04:27:58.261Z,2224.00
2023-07-26T04:32:58.279Z,2908.00
2023-07-26T04:37:58.183Z,3612.00
2023-07-26T04:43:01.408Z,4004.00
2023-07-26T04:47:58.009Z,4104.00
2023-07-26T04:52:57.954Z,4428.00
2023-07-26T04:57:57.858Z,5988.00
2023-07-26T05:02:57.959Z,7020.00
2023-07-26T05:07:57.748Z,9668.00
2023-07-26T05:12:57.703Z,8520.00
2023-07-26T05:17:57.678Z,8552.00
2023-07-26T05:22:57.673Z,10264.00
2023-07-26T05:27:57.451Z,16928.00
2023-07-26T05:32:57.564Z,10140.00
2023-07-26T05:37:57.314Z,10564.00
2023-07-26T05:43:00.819Z,13204.00
2023-07-26T05:47:57.263Z,16032.00
2023-07-26T05:52:57.521Z,11960.00
2023-07-26T05:57:57.070Z,12436.00
2023-07-26T06:02:57.098Z,14656.00
2023-07-26T06:07:56.956Z,18112.00
2023-07-26T06:12:56.935Z,19072.00
2023-07-26T06:17:56.838Z,14496.00
2023-07-26T06:22:56.744Z,14816.00
2023-07-26T06:27:56.723Z,26944.00
2023-07-26T06:32:56.712Z,35200.00
2023-07-26T06:37:56.588Z,34368.00
2023-07-26T06:42:59.869Z,36352.00
2023-07-26T06:47:56.504Z,16800.00
2023-07-26T06:52:56.546Z,45600.00
2023-07-26T06:57:56.311Z,51456.00
2023-07-26T07:02:56.281Z,31872.00
2023-07-26T07:07:56.150Z,29280.00
2023-07-26T07:12:56.205Z,21408.00
2023-07-26T07:18:13.133Z,15456.00
2023-07-26T07:22:57.368Z,14340.00
2023-07-26T07:27:55.922Z,12912.00
2023-07-26T07:32:55.986Z,11616.00
2023-07-26T07:37:55.861Z,16128.00
2023-07-26T07:42:58.885Z,32800.00
2023-07-26T07:47:55.840Z,23264.00
2023-07-26T07:52:55.737Z,23136.00
2023-07-26T07:57:55.648Z,18784.00
2023-07-26T08:02:55.665Z,32864.00
2023-07-26T08:07:55.478Z,24256.00
2023-07-26T08:12:55.608Z,24832.00
2023-07-26T08:17:55.337Z,50336.00
2023-07-26T08:22:56.830Z,18592.00
2023-07-26T08:27:56.579Z,58816.00
2023-07-26T08:32:55.129Z,54592.00
2023-07-26T08:37:55.074Z,24608.00
2023-07-26T08:42:57.970Z,18080.00
2023-07-26T08:47:54.997Z,11428.00
2023-07-26T08:52:55.086Z,8912.00
2023-07-26T08:57:54.720Z,12388.00
2023-07-26T09:02:55.040Z,20320.00
2023-07-26T09:07:54.590Z,15456.00
2023-07-26T09:12:54.612Z,21856.00
2023-07-26T09:17:54.621Z,15036.00
2023-07-26T09:22:54.478Z,13624.00
2023-07-26T09:27:54.392Z,14940.00
2023-07-26T09:32:54.542Z,13356.00
2023-07-26T09:37:55.364Z,15936.00
2023-07-26T09:42:57.332Z,18720.00
2023-07-26T09:48:02.131Z,12632.00
2023-07-26T09:52:55.124Z,6996.00
2023-07-26T09:57:53.959Z,6616.00
2023-07-26T10:02:54.033Z,14776.00
2023-07-26T10:07:53.855Z,17056.00
2023-07-26T10:12:53.742Z,10248.00
2023-07-26T10:17:53.723Z,2748.00
2023-07-26T10:22:53.635Z,1808.00
2023-07-26T10:27:53.535Z,4292.00
2023-07-26T10:32:53.574Z,10332.00
2023-07-26T10:37:53.416Z,13436.00
2023-07-26T10:42:56.657Z,7160.00
2023-07-26T10:47:53.408Z,5824.00
2023-07-26T10:52:53.336Z,7512.00
2023-07-26T10:57:53.257Z,6180.00
2023-07-26T11:02:53.296Z,12824.00
2023-07-26T11:07:53.054Z,8664.00
2023-07-26T11:12:53.031Z,11568.00
2023-07-26T11:17:52.950Z,14416.00
2023-07-26T11:22:52.909Z,9728.00
2023-07-26T11:27:52.764Z,7192.00
2023-07-26T11:32:52.796Z,7544.00
2023-07-26T11:37:52.644Z,10152.00
2023-07-26T11:42:55.627Z,11960.00
2023-07-26T11:47:52.521Z,16160.00
2023-07-26T11:52:52.523Z,16224.00
2023-07-26T11:57:52.477Z,19168.00
2023-07-26T12:02:52.464Z,14708.00
2023-07-26T12:07:52.337Z,14248.00
2023-07-26T12:12:52.427Z,9448.00
2023-07-26T12:17:52.254Z,12528.00
2023-07-26T12:22:52.290Z,14136.00
2023-07-26T12:27:52.049Z,12756.00
2023-07-26T12:32:52.050Z,13360.00
2023-07-26T12:37:51.871Z,7484.00
2023-07-26T12:42:54.845Z,5760.00
2023-07-26T12:47:51.872Z,5552.00
2023-07-26T12:52:51.790Z,6220.00
2023-07-26T12:57:51.672Z,7820.00
2023-07-26T13:02:51.714Z,10520.00
2023-07-26T13:07:51.544Z,10908.00
2023-07-26T13:12:51.540Z,10348.00
2023-07-26T13:17:51.479Z,7636.00
2023-07-26T13:22:51.289Z,8616.00
2023-07-26T13:27:51.206Z,10052.00
2023-07-26T13:32:51.332Z,9460.00
2023-07-26T13:37:51.020Z,13712.00
2023-07-26T13:42:54.006Z,12516.00
2023-07-26T13:47:50.930Z,8316.00
2023-07-26T13:52:50.888Z,8776.00
2023-07-26T13:57:50.814Z,10504.00
2023-07-26T14:02:50.836Z,10356.00
2023-07-26T14:07:50.675Z,9912.00
2023-07-26T14:12:50.733Z,9704.00
2023-07-26T14:17:50.597Z,8860.00
2023-07-26T14:22:50.558Z,6344.00
2023-07-26T14:27:50.427Z,7572.00
2023-07-26T14:32:50.495Z,11620.00
2023-07-26T14:37:50.360Z,10008.00
2023-07-26T14:42:53.272Z,8972.00
2023-07-26T14:47:50.215Z,7504.00
2023-07-26T14:52:50.163Z,9008.00
2023-07-26T14:57:49.993Z,17344.00
2023-07-26T15:02:50.027Z,10072.00
2023-07-26T15:07:49.854Z,13304.00
2023-07-26T15:12:49.934Z,10864.00
2023-07-26T15:17:49.805Z,14300.00
2023-07-26T15:22:49.837Z,13640.00
2023-07-26T15:27:49.664Z,12324.00
2023-07-26T15:32:49.685Z,14784.00
2023-07-26T15:37:49.525Z,7928.00
2023-07-26T15:43:00.612Z,8428.00
2023-07-26T15:47:50.453Z,7332.00
2023-07-26T15:52:49.350Z,6848.00
2023-07-26T15:57:49.317Z,6900.00
2023-07-26T16:12:49.076Z,5028.00
2023-07-26T16:22:48.965Z,4332.00
2023-07-26T16:27:48.848Z,4120.00
2023-07-26T16:32:48.874Z,4012.00
2023-07-26T16:37:48.699Z,3616.00
2023-07-26T16:42:51.744Z,3488.00
2023-07-26T16:47:48.735Z,3432.00
2023-07-26T16:52:48.611Z,4824.00
2023-07-26T16:57:48.426Z,6292.00
2023-07-26T17:02:48.555Z,6252.00
2023-07-26T17:07:48.320Z,5176.00
2023-07-26T17:12:48.298Z,4024.00
2023-07-26T17:17:48.229Z,2980.00
2023-07-26T17:22:48.284Z,3576.00
2023-07-26T17:27:48.010Z,4464.00
2023-07-26T17:32:48.078Z,4372.00
2023-07-26T17:37:47.887Z,3616.00
2023-07-26T17:42:51.003Z,3340.00
2023-07-26T17:47:47.917Z,2344.00
2023-07-26T17:52:47.962Z,2304.00
2023-07-26T17:57:58.985Z,2540.00
2023-07-26T18:02:48.769Z,3232.00
2023-07-26T18:07:47.677Z,3456.00
2023-07-26T18:12:47.568Z,2872.00
2023-07-26T18:17:47.500Z,2168.00
2023-07-26T18:22:47.476Z,1600.00
2023-07-26T18:27:47.236Z,1260.00
2023-07-26T18:32:47.284Z,1016.00
2023-07-26T18:37:47.111Z,756.00
2023-07-26T18:42:50.089Z,668.00
2023-07-26T18:47:47.024Z,528.00
2023-07-26T18:52:47.014Z,440.00
2023-07-26T18:57:48.293Z,352.00
2023-07-26T19:02:47.087Z,268.00
2023-07-26T19:07:46.717Z,180.00
2023-07-26T19:12:46.699Z,120.00
2023-07-26T19:17:46.655Z,72.00
2023-07-26T19:22:46.598Z,44.00
2023-07-26T19:27:46.471Z,24.00
2023-07-26T19:32:46.488Z,12.00
2023-07-26T19:37:46.352Z,4.00
2023-07-26T19:42:49.319Z,4.00
2023-07-26T19:47:46.232Z,0.00
2023-07-26T19:52:46.745Z,0.00
2023-07-26T19:57:46.132Z,0.00
2023-07-26T20:02:46.426Z,0.00
2023-07-26T20:07:46.109Z,0.00
2023-07-26T20:12:46.115Z,0.00
2023-07-26T20:17:45.953Z,0.00
2023-07-26T20:22:46.013Z,0.00
2023-07-26T20:27:45.703Z,0.00
2023-07-26T20:32:45.723Z,0.00
2023-07-26T20:37:45.584Z,0.00
2023-07-26T20:42:48.573Z,0.00
2023-07-26T20:47:45.510Z,0.00
2023-07-26T20:52:45.430Z,0.00
2023-07-26T20:57:45.330Z,0.00
2023-07-26T21:02:45.379Z,0.00
2023-07-26T21:07:45.187Z,0.00
2023-07-26T21:12:45.178Z,0.00
2023-07-26T21:17:45.071Z,0.00
2023-07-26T21:22:45.231Z,0.00
2023-07-26T21:27:44.923Z,0.00
2023-07-26T21:32:44.972Z,0.00
2023-07-26T21:37:44.817Z,0.00
2023-07-26T21:42:47.752Z,0.00
2023-07-26T21:47:44.656Z,0.00
2023-07-26T21:52:44.675Z,0.00
2023-07-26T21:57:44.554Z,0.00
2023-07-26T22:02:44.652Z,0.00
2023-07-26T22:07:44.377Z,0.00
2023-07-26T22:12:44.456Z,0.00
2023-07-26T22:17:45.123Z,0.00
2023-07-26T22:22:44.334Z,0.00
2023-07-26T22:27:44.174Z,0.00
2023-07-26T22:32:44.160Z,0.00
2023-07-26T22:37:44.041Z,0.00
2023-07-26T22:42:47.024Z,0.00
2023-07-26T22:47:43.856Z,0.00
2023-07-26T22:52:43.830Z,0.00
2023-07-26T22:57:43.720Z,0.00
2023-07-26T23:02:43.783Z,0.00
2023-07-26T23:07:43.584Z,0.00
2023-07-26T23:12:43.607Z,0.00
2023-07-26T23:17:43.595Z,0.00
2023-07-26T23:22:43.612Z,0.00
2023-07-26T23:27:43.317Z,0.00
2023-07-26T23:32:43.347Z,0.00
2023-07-26T23:37:43.268Z,0.00
2023-07-26T23:42:46.281Z,0.00
2023-07-26T23:47:43.109Z,0.00
2023-07-26T23:52:43.146Z,0.00
2023-07-26T23:57:42.928Z,0.00
